sensor_id;sensor_type;location;lat;lon;timestamp;temperature;humidity
5176;DHT22;2607;50.934;6.934;2022-08-06T00:02:09;17.60;97.20
5176;DHT22;2607;50.934;6.934;2022-08-06T00:04:34;17.50;97.20
5176;DHT22;2607;50.934;6.934;2022-08-06T00:07:00;17.50;97.30
5176;DHT22;2607;50.934;6.934;2022-08-06T00:09:26;17.40;97.30
5176;DHT22;2607;50.934;6.934;2022-08-06T00:11:59;17.40;97.50
5176;DHT22;2607;50.934;6.934;2022-08-06T00:14:26;17.40;97.60
5176;DHT22;2607;50.934;6.934;2022-08-06T00:16:52;17.40;97.70
5176;DHT22;2607;50.934;6.934;2022-08-06T00:19:17;17.40;97.80
5176;DHT22;2607;50.934;6.934;2022-08-06T00:21:43;17.30;97.80
5176;DHT22;2607;50.934;6.934;2022-08-06T00:24:08;17.30;97.80
5176;DHT22;2607;50.934;6.934;2022-08-06T00:26:34;17.30;97.90
5176;DHT22;2607;50.934;6.934;2022-08-06T00:29:00;17.20;97.90
5176;DHT22;2607;50.934;6.934;2022-08-06T00:31:25;17.20;97.90
5176;DHT22;2607;50.934;6.934;2022-08-06T00:33:51;17.20;97.90
5176;DHT22;2607;50.934;6.934;2022-08-06T00:36:16;17.10;97.90
5176;DHT22;2607;50.934;6.934;2022-08-06T00:38:42;17.10;98.10
5176;DHT22;2607;50.934;6.934;2022-08-06T00:41:08;17.10;98.20
5176;DHT22;2607;50.934;6.934;2022-08-06T00:43:33;17.10;98.20
5176;DHT22;2607;50.934;6.934;2022-08-06T00:45:59;17.00;98.30
5176;DHT22;2607;50.934;6.934;2022-08-06T00:48:25;17.00;98.10
5176;DHT22;2607;50.934;6.934;2022-08-06T00:50:51;17.00;98.20
5176;DHT22;2607;50.934;6.934;2022-08-06T00:53:16;16.90;98.30
5176;DHT22;2607;50.934;6.934;2022-08-06T00:55:42;16.90;98.30
5176;DHT22;2607;50.934;6.934;2022-08-06T00:58:07;16.80;98.30
5176;DHT22;2607;50.934;6.934;2022-08-06T01:00:33;16.80;98.30
5176;DHT22;2607;50.934;6.934;2022-08-06T01:02:59;16.70;98.40
5176;DHT22;2607;50.934;6.934;2022-08-06T01:05:25;16.70;98.60
5176;DHT22;2607;50.934;6.934;2022-08-06T01:07:51;16.60;98.60
5176;DHT22;2607;50.934;6.934;2022-08-06T01:10:16;16.60;98.70
5176;DHT22;2607;50.934;6.934;2022-08-06T01:12:42;16.60;98.70
5176;DHT22;2607;50.934;6.934;2022-08-06T01:15:08;16.60;98.70
5176;DHT22;2607;50.934;6.934;2022-08-06T01:17:41;16.50;98.70
5176;DHT22;2607;50.934;6.934;2022-08-06T01:28:45;16.40;99.20
5176;DHT22;2607;50.934;6.934;2022-08-06T01:31:17;16.40;99.30
5176;DHT22;2607;50.934;6.934;2022-08-06T01:33:50;16.30;99.30
5176;DHT22;2607;50.934;6.934;2022-08-06T01:36:24;16.30;99.40
5176;DHT22;2607;50.934;6.934;2022-08-06T01:38:55;16.30;99.50
5176;DHT22;2607;50.934;6.934;2022-08-06T01:41:23;16.30;99.40
5176;DHT22;2607;50.934;6.934;2022-08-06T01:44:20;16.30;99.50
5176;DHT22;2607;50.934;6.934;2022-08-06T01:46:54;16.20;99.50
5176;DHT22;2607;50.934;6.934;2022-08-06T01:49:23;16.20;99.60
5176;DHT22;2607;50.934;6.934;2022-08-06T01:51:52;16.20;99.70
5176;DHT22;2607;50.934;6.934;2022-08-06T01:54:19;16.20;99.70
5176;DHT22;2607;50.934;6.934;2022-08-06T01:56:51;16.10;99.70
5176;DHT22;2607;50.934;6.934;2022-08-06T01:59:21;16.10;99.70
5176;DHT22;2607;50.934;6.934;2022-08-06T02:01:51;16.10;99.90
5176;DHT22;2607;50.934;6.934;2022-08-06T02:04:18;16.00;99.90
5176;DHT22;2607;50.934;6.934;2022-08-06T02:06:46;16.00;99.90
5176;DHT22;2607;50.934;6.934;2022-08-06T02:09:15;16.00;99.90
5176;DHT22;2607;50.934;6.934;2022-08-06T02:11:43;16.00;99.90
5176;DHT22;2607;50.934;6.934;2022-08-06T02:14:12;15.90;99.90
5176;DHT22;2607;50.934;6.934;2022-08-06T02:16:40;15.90;99.90
5176;DHT22;2607;50.934;6.934;2022-08-06T02:19:07;15.90;99.80
5176;DHT22;2607;50.934;6.934;2022-08-06T02:21:34;15.90;99.80
5176;DHT22;2607;50.934;6.934;2022-08-06T02:24:04;15.80;99.90
5176;DHT22;2607;50.934;6.934;2022-08-06T02:26:31;15.80;99.90
5176;DHT22;2607;50.934;6.934;2022-08-06T02:28:59;15.80;99.90
5176;DHT22;2607;50.934;6.934;2022-08-06T02:31:25;15.80;99.90
5176;DHT22;2607;50.934;6.934;2022-08-06T02:33:51;15.70;99.90
5176;DHT22;2607;50.934;6.934;2022-08-06T02:36:48;15.70;99.90
5176;DHT22;2607;50.934;6.934;2022-08-06T02:39:26;15.70;99.90
5176;DHT22;2607;50.934;6.934;2022-08-06T02:42:24;15.70;99.90
5176;DHT22;2607;50.934;6.934;2022-08-06T02:45:17;15.70;99.90
5176;DHT22;2607;50.934;6.934;2022-08-06T02:48:01;15.60;99.90
5176;DHT22;2607;50.934;6.934;2022-08-06T02:50:35;15.60;99.90
5176;DHT22;2607;50.934;6.934;2022-08-06T02:53:07;15.60;99.90
5176;DHT22;2607;50.934;6.934;2022-08-06T02:55:36;15.60;99.90
5176;DHT22;2607;50.934;6.934;2022-08-06T03:00:37;15.50;99.90
5176;DHT22;2607;50.934;6.934;2022-08-06T03:03:04;15.50;99.90
5176;DHT22;2607;50.934;6.934;2022-08-06T03:05:33;15.50;99.90
5176;DHT22;2607;50.934;6.934;2022-08-06T03:08:01;15.50;99.90
5176;DHT22;2607;50.934;6.934;2022-08-06T03:10:28;15.40;99.90
5176;DHT22;2607;50.934;6.934;2022-08-06T03:12:55;15.40;99.90
5176;DHT22;2607;50.934;6.934;2022-08-06T03:15:23;15.40;99.90
5176;DHT22;2607;50.934;6.934;2022-08-06T03:17:50;15.40;99.90
5176;DHT22;2607;50.934;6.934;2022-08-06T03:20:19;15.30;99.90
5176;DHT22;2607;50.934;6.934;2022-08-06T03:22:48;15.30;99.90
5176;DHT22;2607;50.934;6.934;2022-08-06T03:25:15;15.30;99.90
5176;DHT22;2607;50.934;6.934;2022-08-06T03:27:43;15.30;99.90
5176;DHT22;2607;50.934;6.934;2022-08-06T03:30:11;15.30;99.90
5176;DHT22;2607;50.934;6.934;2022-08-06T03:32:37;15.30;99.90
5176;DHT22;2607;50.934;6.934;2022-08-06T03:35:03;15.20;99.90
5176;DHT22;2607;50.934;6.934;2022-08-06T03:37:30;15.20;99.90
5176;DHT22;2607;50.934;6.934;2022-08-06T03:39:58;15.20;99.90
5176;DHT22;2607;50.934;6.934;2022-08-06T03:42:25;15.20;99.90
5176;DHT22;2607;50.934;6.934;2022-08-06T03:44:51;15.20;99.90
5176;DHT22;2607;50.934;6.934;2022-08-06T03:47:21;15.30;99.90
5176;DHT22;2607;50.934;6.934;2022-08-06T03:49:57;15.30;99.90
5176;DHT22;2607;50.934;6.934;2022-08-06T03:52:27;15.30;99.90
5176;DHT22;2607;50.934;6.934;2022-08-06T03:54:57;15.30;99.90
5176;DHT22;2607;50.934;6.934;2022-08-06T03:57:26;15.30;99.90
5176;DHT22;2607;50.934;6.934;2022-08-06T03:59:56;15.30;99.90
5176;DHT22;2607;50.934;6.934;2022-08-06T04:02:32;15.30;99.90
5176;DHT22;2607;50.934;6.934;2022-08-06T04:05:00;15.30;99.90
5176;DHT22;2607;50.934;6.934;2022-08-06T04:07:26;15.30;99.90
5176;DHT22;2607;50.934;6.934;2022-08-06T04:09:53;15.30;99.90
5176;DHT22;2607;50.934;6.934;2022-08-06T04:12:20;15.30;99.90
5176;DHT22;2607;50.934;6.934;2022-08-06T04:14:45;15.30;99.90
5176;DHT22;2607;50.934;6.934;2022-08-06T04:17:12;15.30;99.90
5176;DHT22;2607;50.934;6.934;2022-08-06T04:19:38;15.30;99.90
5176;DHT22;2607;50.934;6.934;2022-08-06T04:22:04;15.30;99.90
5176;DHT22;2607;50.934;6.934;2022-08-06T04:24:30;15.30;99.90
5176;DHT22;2607;50.934;6.934;2022-08-06T04:26:57;15.30;99.90
5176;DHT22;2607;50.934;6.934;2022-08-06T04:29:24;15.30;99.90
5176;DHT22;2607;50.934;6.934;2022-08-06T04:31:50;15.30;99.90
5176;DHT22;2607;50.934;6.934;2022-08-06T04:34:25;15.30;99.90
5176;DHT22;2607;50.934;6.934;2022-08-06T04:36:51;15.30;99.90
5176;DHT22;2607;50.934;6.934;2022-08-06T04:39:18;15.30;99.90
5176;DHT22;2607;50.934;6.934;2022-08-06T04:41:45;15.30;99.90
5176;DHT22;2607;50.934;6.934;2022-08-06T04:44:11;15.20;99.90
5176;DHT22;2607;50.934;6.934;2022-08-06T04:46:38;15.20;99.90
5176;DHT22;2607;50.934;6.934;2022-08-06T04:49:04;15.20;99.90
5176;DHT22;2607;50.934;6.934;2022-08-06T04:51:29;15.20;99.90
5176;DHT22;2607;50.934;6.934;2022-08-06T04:53:56;15.20;99.90
5176;DHT22;2607;50.934;6.934;2022-08-06T04:56:21;15.10;99.90
5176;DHT22;2607;50.934;6.934;2022-08-06T04:58:47;15.10;99.90
5176;DHT22;2607;50.934;6.934;2022-08-06T05:01:13;15.10;99.90
5176;DHT22;2607;50.934;6.934;2022-08-06T05:03:39;15.10;99.90
5176;DHT22;2607;50.934;6.934;2022-08-06T05:06:18;15.10;99.90
5176;DHT22;2607;50.934;6.934;2022-08-06T05:08:46;15.10;99.90
5176;DHT22;2607;50.934;6.934;2022-08-06T05:11:33;15.10;99.90
5176;DHT22;2607;50.934;6.934;2022-08-06T05:14:08;15.10;99.90
5176;DHT22;2607;50.934;6.934;2022-08-06T05:16:38;15.10;99.90
5176;DHT22;2607;50.934;6.934;2022-08-06T05:19:08;15.10;99.90
5176;DHT22;2607;50.934;6.934;2022-08-06T05:21:37;15.10;99.90
5176;DHT22;2607;50.934;6.934;2022-08-06T05:24:03;15.20;99.90
5176;DHT22;2607;50.934;6.934;2022-08-06T05:26:30;15.20;99.90
5176;DHT22;2607;50.934;6.934;2022-08-06T05:28:56;15.20;99.90
5176;DHT22;2607;50.934;6.934;2022-08-06T05:31:35;15.20;99.90
5176;DHT22;2607;50.934;6.934;2022-08-06T05:34:07;15.20;99.90
5176;DHT22;2607;50.934;6.934;2022-08-06T05:36:34;15.20;99.90
5176;DHT22;2607;50.934;6.934;2022-08-06T05:38:59;15.30;99.90
5176;DHT22;2607;50.934;6.934;2022-08-06T05:41:25;15.30;99.90
5176;DHT22;2607;50.934;6.934;2022-08-06T05:43:51;15.30;99.90
5176;DHT22;2607;50.934;6.934;2022-08-06T05:46:19;15.30;99.90
5176;DHT22;2607;50.934;6.934;2022-08-06T05:48:54;15.30;99.90
5176;DHT22;2607;50.934;6.934;2022-08-06T05:54:10;15.40;99.90
5176;DHT22;2607;50.934;6.934;2022-08-06T05:56:41;15.40;99.90
5176;DHT22;2607;50.934;6.934;2022-08-06T05:59:27;15.40;99.90
5176;DHT22;2607;50.934;6.934;2022-08-06T06:01:54;15.40;99.90
5176;DHT22;2607;50.934;6.934;2022-08-06T06:04:21;15.40;99.90
5176;DHT22;2607;50.934;6.934;2022-08-06T06:06:48;15.40;99.90
5176;DHT22;2607;50.934;6.934;2022-08-06T06:09:14;15.50;99.90
5176;DHT22;2607;50.934;6.934;2022-08-06T06:11:40;15.50;99.90
5176;DHT22;2607;50.934;6.934;2022-08-06T06:19:39;15.60;99.90
5176;DHT22;2607;50.934;6.934;2022-08-06T06:22:23;15.50;99.90
5176;DHT22;2607;50.934;6.934;2022-08-06T06:24:56;15.50;99.90
5176;DHT22;2607;50.934;6.934;2022-08-06T06:27:38;15.60;99.90
5176;DHT22;2607;50.934;6.934;2022-08-06T06:30:08;15.60;99.90
5176;DHT22;2607;50.934;6.934;2022-08-06T06:40:17;15.70;99.90
5176;DHT22;2607;50.934;6.934;2022-08-06T06:43:11;15.80;99.90
5176;DHT22;2607;50.934;6.934;2022-08-06T06:45:48;15.80;99.90
5176;DHT22;2607;50.934;6.934;2022-08-06T06:48:21;15.90;99.90
5176;DHT22;2607;50.934;6.934;2022-08-06T06:50:54;15.90;99.90
5176;DHT22;2607;50.934;6.934;2022-08-06T06:53:23;16.00;99.90
5176;DHT22;2607;50.934;6.934;2022-08-06T06:55:55;16.00;99.90
5176;DHT22;2607;50.934;6.934;2022-08-06T07:00:54;16.10;99.90
5176;DHT22;2607;50.934;6.934;2022-08-06T07:03:22;16.10;99.90
5176;DHT22;2607;50.934;6.934;2022-08-06T07:05:49;16.20;99.90
5176;DHT22;2607;50.934;6.934;2022-08-06T07:08:19;16.20;99.90
5176;DHT22;2607;50.934;6.934;2022-08-06T07:10:45;16.30;99.90
5176;DHT22;2607;50.934;6.934;2022-08-06T07:13:12;16.30;99.90
5176;DHT22;2607;50.934;6.934;2022-08-06T07:15:40;16.40;99.90
5176;DHT22;2607;50.934;6.934;2022-08-06T07:18:07;16.40;99.90
5176;DHT22;2607;50.934;6.934;2022-08-06T07:20:33;16.50;99.90
5176;DHT22;2607;50.934;6.934;2022-08-06T07:23:02;16.50;99.90
5176;DHT22;2607;50.934;6.934;2022-08-06T07:25:29;16.60;99.90
5176;DHT22;2607;50.934;6.934;2022-08-06T07:27:54;16.60;99.90
5176;DHT22;2607;50.934;6.934;2022-08-06T07:30:21;16.70;99.90
5176;DHT22;2607;50.934;6.934;2022-08-06T07:32:48;16.80;99.90
5176;DHT22;2607;50.934;6.934;2022-08-06T07:35:16;16.90;99.90
5176;DHT22;2607;50.934;6.934;2022-08-06T07:37:54;16.90;99.90
5176;DHT22;2607;50.934;6.934;2022-08-06T07:40:32;17.00;99.90
5176;DHT22;2607;50.934;6.934;2022-08-06T07:43:13;17.20;99.90
5176;DHT22;2607;50.934;6.934;2022-08-06T07:45:39;17.30;99.90
5176;DHT22;2607;50.934;6.934;2022-08-06T07:48:09;17.40;99.40
5176;DHT22;2607;50.934;6.934;2022-08-06T07:50:35;17.40;99.10
5176;DHT22;2607;50.934;6.934;2022-08-06T07:53:02;17.50;98.90
5176;DHT22;2607;50.934;6.934;2022-08-06T07:55:28;17.60;99.90
5176;DHT22;2607;50.934;6.934;2022-08-06T07:57:56;17.70;99.10
5176;DHT22;2607;50.934;6.934;2022-08-06T08:00:23;17.80;98.00
5176;DHT22;2607;50.934;6.934;2022-08-06T08:02:50;17.80;98.10
5176;DHT22;2607;50.934;6.934;2022-08-06T08:05:37;17.90;97.80
5176;DHT22;2607;50.934;6.934;2022-08-06T08:08:24;18.00;97.50
5176;DHT22;2607;50.934;6.934;2022-08-06T08:10:50;18.10;97.20
5176;DHT22;2607;50.934;6.934;2022-08-06T08:13:17;18.30;97.50
5176;DHT22;2607;50.934;6.934;2022-08-06T08:15:45;18.60;96.50
5176;DHT22;2607;50.934;6.934;2022-08-06T08:18:11;18.80;96.20
5176;DHT22;2607;50.934;6.934;2022-08-06T08:20:38;19.00;95.70
5176;DHT22;2607;50.934;6.934;2022-08-06T08:23:04;19.20;93.90
5176;DHT22;2607;50.934;6.934;2022-08-06T08:25:31;19.20;93.00
5176;DHT22;2607;50.934;6.934;2022-08-06T08:27:56;19.20;91.90
5176;DHT22;2607;50.934;6.934;2022-08-06T08:30:23;19.20;92.00
5176;DHT22;2607;50.934;6.934;2022-08-06T08:32:49;19.20;91.10
5176;DHT22;2607;50.934;6.934;2022-08-06T08:35:14;19.10;90.70
5176;DHT22;2607;50.934;6.934;2022-08-06T08:37:41;19.10;90.30
5176;DHT22;2607;50.934;6.934;2022-08-06T08:40:07;19.10;90.20
5176;DHT22;2607;50.934;6.934;2022-08-06T08:42:37;19.10;90.20
5176;DHT22;2607;50.934;6.934;2022-08-06T08:45:05;19.10;90.60
5176;DHT22;2607;50.934;6.934;2022-08-06T08:47:33;19.10;90.40
5176;DHT22;2607;50.934;6.934;2022-08-06T08:50:01;19.10;90.70
5176;DHT22;2607;50.934;6.934;2022-08-06T08:52:32;19.20;91.20
5176;DHT22;2607;50.934;6.934;2022-08-06T08:55:04;19.20;91.40
5176;DHT22;2607;50.934;6.934;2022-08-06T08:57:30;19.20;91.20
5176;DHT22;2607;50.934;6.934;2022-08-06T08:59:57;19.30;90.70
5176;DHT22;2607;50.934;6.934;2022-08-06T09:02:23;19.30;91.00
5176;DHT22;2607;50.934;6.934;2022-08-06T09:04:49;19.40;91.00
5176;DHT22;2607;50.934;6.934;2022-08-06T09:07:16;19.50;90.70
5176;DHT22;2607;50.934;6.934;2022-08-06T09:09:41;19.60;90.50
5176;DHT22;2607;50.934;6.934;2022-08-06T09:12:08;19.70;90.10
5176;DHT22;2607;50.934;6.934;2022-08-06T09:14:35;19.70;89.40
5176;DHT22;2607;50.934;6.934;2022-08-06T09:17:02;19.70;89.10
5176;DHT22;2607;50.934;6.934;2022-08-06T09:19:28;19.70;88.20
5176;DHT22;2607;50.934;6.934;2022-08-06T09:21:58;19.70;87.70
5176;DHT22;2607;50.934;6.934;2022-08-06T09:24:25;19.70;87.80
5176;DHT22;2607;50.934;6.934;2022-08-06T09:29:31;19.80;87.10
5176;DHT22;2607;50.934;6.934;2022-08-06T09:31:58;19.80;90.00
5176;DHT22;2607;50.934;6.934;2022-08-06T09:34:38;19.80;89.20
5176;DHT22;2607;50.934;6.934;2022-08-06T09:37:04;19.90;89.20
5176;DHT22;2607;50.934;6.934;2022-08-06T09:39:37;20.00;87.40
5176;DHT22;2607;50.934;6.934;2022-08-06T09:42:10;20.10;87.50
5176;DHT22;2607;50.934;6.934;2022-08-06T09:44:35;20.10;86.00
5176;DHT22;2607;50.934;6.934;2022-08-06T09:47:01;20.20;86.10
5176;DHT22;2607;50.934;6.934;2022-08-06T09:49:27;20.30;85.60
5176;DHT22;2607;50.934;6.934;2022-08-06T09:52:13;20.40;84.70
5176;DHT22;2607;50.934;6.934;2022-08-06T09:54:40;20.40;85.00
5176;DHT22;2607;50.934;6.934;2022-08-06T09:57:05;20.50;84.60
5176;DHT22;2607;50.934;6.934;2022-08-06T09:59:42;20.50;84.20
5176;DHT22;2607;50.934;6.934;2022-08-06T10:02:15;20.60;82.10
5176;DHT22;2607;50.934;6.934;2022-08-06T10:04:43;20.70;80.80
5176;DHT22;2607;50.934;6.934;2022-08-06T10:07:09;20.70;81.30
5176;DHT22;2607;50.934;6.934;2022-08-06T10:09:35;20.60;80.60
5176;DHT22;2607;50.934;6.934;2022-08-06T10:12:16;20.70;80.60
5176;DHT22;2607;50.934;6.934;2022-08-06T10:14:42;20.70;80.10
5176;DHT22;2607;50.934;6.934;2022-08-06T10:17:12;20.80;81.30
5176;DHT22;2607;50.934;6.934;2022-08-06T10:19:40;20.90;81.80
5176;DHT22;2607;50.934;6.934;2022-08-06T10:22:14;21.00;81.90
5176;DHT22;2607;50.934;6.934;2022-08-06T10:24:45;21.20;79.80
5176;DHT22;2607;50.934;6.934;2022-08-06T10:27:13;21.30;75.40
5176;DHT22;2607;50.934;6.934;2022-08-06T10:29:44;21.40;79.70
5176;DHT22;2607;50.934;6.934;2022-08-06T10:32:23;21.50;77.30
5176;DHT22;2607;50.934;6.934;2022-08-06T10:34:51;21.70;75.00
5176;DHT22;2607;50.934;6.934;2022-08-06T10:37:18;21.70;72.30
5176;DHT22;2607;50.934;6.934;2022-08-06T10:39:47;21.70;74.80
5176;DHT22;2607;50.934;6.934;2022-08-06T10:42:15;21.90;74.40
5176;DHT22;2607;50.934;6.934;2022-08-06T10:44:41;22.10;72.00
5176;DHT22;2607;50.934;6.934;2022-08-06T10:47:07;22.20;69.20
5176;DHT22;2607;50.934;6.934;2022-08-06T10:49:34;22.10;70.10
5176;DHT22;2607;50.934;6.934;2022-08-06T10:52:00;22.10;70.40
5176;DHT22;2607;50.934;6.934;2022-08-06T10:54:26;21.90;70.00
5176;DHT22;2607;50.934;6.934;2022-08-06T10:56:52;21.80;70.00
5176;DHT22;2607;50.934;6.934;2022-08-06T10:59:20;21.60;70.50
5176;DHT22;2607;50.934;6.934;2022-08-06T11:04:42;21.40;71.60
5176;DHT22;2607;50.934;6.934;2022-08-06T11:07:35;21.40;70.70
5176;DHT22;2607;50.934;6.934;2022-08-06T11:12:57;21.70;72.70
5176;DHT22;2607;50.934;6.934;2022-08-06T11:15:24;21.80;71.70
5176;DHT22;2607;50.934;6.934;2022-08-06T11:17:54;22.00;70.80
5176;DHT22;2607;50.934;6.934;2022-08-06T11:20:34;22.20;71.90
5176;DHT22;2607;50.934;6.934;2022-08-06T11:23:04;22.30;71.60
5176;DHT22;2607;50.934;6.934;2022-08-06T11:28:10;22.60;68.20
5176;DHT22;2607;50.934;6.934;2022-08-06T11:33:10;22.80;65.80
5176;DHT22;2607;50.934;6.934;2022-08-06T11:38:04;22.80;65.70
5176;DHT22;2607;50.934;6.934;2022-08-06T11:40:59;22.70;63.90
5176;DHT22;2607;50.934;6.934;2022-08-06T11:46:25;22.60;64.90
5176;DHT22;2607;50.934;6.934;2022-08-06T12:00:00;22.60;67.50
5176;DHT22;2607;50.934;6.934;2022-08-06T12:07:46;23.10;66.00
5176;DHT22;2607;50.934;6.934;2022-08-06T12:10:15;23.30;63.70
5176;DHT22;2607;50.934;6.934;2022-08-06T12:12:46;23.40;64.00
5176;DHT22;2607;50.934;6.934;2022-08-06T12:17:39;23.30;62.40
5176;DHT22;2607;50.934;6.934;2022-08-06T12:20:05;23.30;62.20
5176;DHT22;2607;50.934;6.934;2022-08-06T12:22:33;23.40;62.20
5176;DHT22;2607;50.934;6.934;2022-08-06T12:25:00;23.50;62.00
5176;DHT22;2607;50.934;6.934;2022-08-06T12:27:31;23.50;61.40
5176;DHT22;2607;50.934;6.934;2022-08-06T12:29:58;23.40;61.40
5176;DHT22;2607;50.934;6.934;2022-08-06T12:32:27;23.30;61.70
5176;DHT22;2607;50.934;6.934;2022-08-06T12:34:55;23.30;63.20
5176;DHT22;2607;50.934;6.934;2022-08-06T12:37:20;23.20;62.40
5176;DHT22;2607;50.934;6.934;2022-08-06T12:39:46;23.20;62.70
5176;DHT22;2607;50.934;6.934;2022-08-06T12:42:32;23.10;62.50
5176;DHT22;2607;50.934;6.934;2022-08-06T12:44:58;23.00;61.10
5176;DHT22;2607;50.934;6.934;2022-08-06T12:47:24;23.10;61.10
5176;DHT22;2607;50.934;6.934;2022-08-06T12:49:53;23.00;60.80
5176;DHT22;2607;50.934;6.934;2022-08-06T12:52:20;22.90;60.90
5176;DHT22;2607;50.934;6.934;2022-08-06T12:54:47;22.80;62.30
5176;DHT22;2607;50.934;6.934;2022-08-06T12:57:33;22.70;61.70
5176;DHT22;2607;50.934;6.934;2022-08-06T12:59:59;22.70;62.40
5176;DHT22;2607;50.934;6.934;2022-08-06T13:02:26;22.90;61.90
5176;DHT22;2607;50.934;6.934;2022-08-06T13:04:53;23.10;61.70
5176;DHT22;2607;50.934;6.934;2022-08-06T13:07:20;23.30;60.50
5176;DHT22;2607;50.934;6.934;2022-08-06T13:09:46;23.20;59.40
5176;DHT22;2607;50.934;6.934;2022-08-06T13:12:17;23.20;59.30
5176;DHT22;2607;50.934;6.934;2022-08-06T13:14:57;23.00;59.70
5176;DHT22;2607;50.934;6.934;2022-08-06T13:17:23;22.90;60.10
5176;DHT22;2607;50.934;6.934;2022-08-06T13:19:55;22.90;60.90
5176;DHT22;2607;50.934;6.934;2022-08-06T13:22:22;22.90;60.20
5176;DHT22;2607;50.934;6.934;2022-08-06T13:25:07;23.00;61.60
5176;DHT22;2607;50.934;6.934;2022-08-06T13:27:34;23.20;64.70
5176;DHT22;2607;50.934;6.934;2022-08-06T13:30:07;23.20;58.10
5176;DHT22;2607;50.934;6.934;2022-08-06T13:32:33;23.30;57.70
5176;DHT22;2607;50.934;6.934;2022-08-06T13:35:01;23.40;57.70
5176;DHT22;2607;50.934;6.934;2022-08-06T13:37:47;23.50;57.80
5176;DHT22;2607;50.934;6.934;2022-08-06T13:40:16;23.60;58.90
5176;DHT22;2607;50.934;6.934;2022-08-06T13:42:54;23.60;58.20
5176;DHT22;2607;50.934;6.934;2022-08-06T13:45:22;23.70;57.60
5176;DHT22;2607;50.934;6.934;2022-08-06T13:47:48;23.70;57.70
5176;DHT22;2607;50.934;6.934;2022-08-06T13:50:20;23.70;57.90
5176;DHT22;2607;50.934;6.934;2022-08-06T13:52:46;23.70;56.60
5176;DHT22;2607;50.934;6.934;2022-08-06T13:55:12;23.70;58.00
5176;DHT22;2607;50.934;6.934;2022-08-06T13:57:38;23.70;56.50
5176;DHT22;2607;50.934;6.934;2022-08-06T14:00:05;23.70;56.80
5176;DHT22;2607;50.934;6.934;2022-08-06T14:02:33;23.80;59.60
5176;DHT22;2607;50.934;6.934;2022-08-06T14:04:59;23.90;66.40
5176;DHT22;2607;50.934;6.934;2022-08-06T14:07:24;23.90;61.20
5176;DHT22;2607;50.934;6.934;2022-08-06T14:09:50;24.00;58.80
5176;DHT22;2607;50.934;6.934;2022-08-06T14:12:15;24.00;56.20
5176;DHT22;2607;50.934;6.934;2022-08-06T14:14:41;23.90;57.20
5176;DHT22;2607;50.934;6.934;2022-08-06T14:17:07;23.70;56.50
5176;DHT22;2607;50.934;6.934;2022-08-06T14:19:32;23.60;55.70
5176;DHT22;2607;50.934;6.934;2022-08-06T14:21:58;23.50;55.20
5176;DHT22;2607;50.934;6.934;2022-08-06T14:24:23;23.50;56.10
5176;DHT22;2607;50.934;6.934;2022-08-06T14:26:50;23.40;55.10
5176;DHT22;2607;50.934;6.934;2022-08-06T14:29:15;23.40;57.80
5176;DHT22;2607;50.934;6.934;2022-08-06T14:31:41;23.50;60.70
5176;DHT22;2607;50.934;6.934;2022-08-06T14:34:07;23.50;62.30
5176;DHT22;2607;50.934;6.934;2022-08-06T14:36:33;23.50;63.00
5176;DHT22;2607;50.934;6.934;2022-08-06T14:38:58;23.60;64.20
5176;DHT22;2607;50.934;6.934;2022-08-06T14:41:24;23.60;62.00
5176;DHT22;2607;50.934;6.934;2022-08-06T14:44:09;23.60;61.70
5176;DHT22;2607;50.934;6.934;2022-08-06T14:46:54;23.80;66.20
5176;DHT22;2607;50.934;6.934;2022-08-06T14:49:19;23.90;59.40
5176;DHT22;2607;50.934;6.934;2022-08-06T14:51:45;23.90;59.60
5176;DHT22;2607;50.934;6.934;2022-08-06T14:54:11;24.00;56.80
5176;DHT22;2607;50.934;6.934;2022-08-06T14:56:37;24.00;61.10
5176;DHT22;2607;50.934;6.934;2022-08-06T14:59:03;24.00;60.40
5176;DHT22;2607;50.934;6.934;2022-08-06T15:01:28;24.00;57.70
5176;DHT22;2607;50.934;6.934;2022-08-06T15:03:54;23.90;56.30
5176;DHT22;2607;50.934;6.934;2022-08-06T15:06:19;23.90;57.80
5176;DHT22;2607;50.934;6.934;2022-08-06T15:08:45;23.80;58.10
5176;DHT22;2607;50.934;6.934;2022-08-06T15:11:10;23.60;56.40
5176;DHT22;2607;50.934;6.934;2022-08-06T15:13:36;23.50;56.00
5176;DHT22;2607;50.934;6.934;2022-08-06T15:16:02;23.30;55.70
5176;DHT22;2607;50.934;6.934;2022-08-06T15:18:27;23.20;56.30
5176;DHT22;2607;50.934;6.934;2022-08-06T15:20:53;23.10;56.90
5176;DHT22;2607;50.934;6.934;2022-08-06T15:23:19;23.00;55.80
5176;DHT22;2607;50.934;6.934;2022-08-06T15:25:44;22.90;55.70
5176;DHT22;2607;50.934;6.934;2022-08-06T15:28:10;22.90;58.10
5176;DHT22;2607;50.934;6.934;2022-08-06T15:30:36;22.80;60.40
5176;DHT22;2607;50.934;6.934;2022-08-06T15:33:01;22.90;61.40
5176;DHT22;2607;50.934;6.934;2022-08-06T15:35:28;23.00;59.60
5176;DHT22;2607;50.934;6.934;2022-08-06T15:37:54;23.00;59.50
5176;DHT22;2607;50.934;6.934;2022-08-06T15:40:20;23.10;59.70
5176;DHT22;2607;50.934;6.934;2022-08-06T15:42:46;23.10;59.50
5176;DHT22;2607;50.934;6.934;2022-08-06T15:45:12;23.20;60.00
5176;DHT22;2607;50.934;6.934;2022-08-06T15:47:40;23.20;59.00
5176;DHT22;2607;50.934;6.934;2022-08-06T15:50:06;23.10;58.50
5176;DHT22;2607;50.934;6.934;2022-08-06T15:52:33;23.10;58.00
5176;DHT22;2607;50.934;6.934;2022-08-06T15:55:03;23.00;58.10
5176;DHT22;2607;50.934;6.934;2022-08-06T15:57:31;23.00;58.30
5176;DHT22;2607;50.934;6.934;2022-08-06T15:59:56;23.00;55.70
5176;DHT22;2607;50.934;6.934;2022-08-06T16:02:22;22.90;57.80
5176;DHT22;2607;50.934;6.934;2022-08-06T16:04:48;22.90;57.60
5176;DHT22;2607;50.934;6.934;2022-08-06T16:07:13;22.80;58.80
5176;DHT22;2607;50.934;6.934;2022-08-06T16:09:39;22.80;57.90
5176;DHT22;2607;50.934;6.934;2022-08-06T16:12:07;22.80;58.00
5176;DHT22;2607;50.934;6.934;2022-08-06T16:14:33;22.80;57.50
5176;DHT22;2607;50.934;6.934;2022-08-06T16:16:58;22.80;57.10
5176;DHT22;2607;50.934;6.934;2022-08-06T16:19:24;22.80;57.80
5176;DHT22;2607;50.934;6.934;2022-08-06T16:21:50;22.80;58.10
5176;DHT22;2607;50.934;6.934;2022-08-06T16:24:16;22.80;57.20
5176;DHT22;2607;50.934;6.934;2022-08-06T16:26:41;22.70;56.90
5176;DHT22;2607;50.934;6.934;2022-08-06T16:29:08;22.70;56.50
5176;DHT22;2607;50.934;6.934;2022-08-06T16:31:34;22.70;56.10
5176;DHT22;2607;50.934;6.934;2022-08-06T16:33:59;22.70;57.10
5176;DHT22;2607;50.934;6.934;2022-08-06T16:36:25;22.70;62.20
5176;DHT22;2607;50.934;6.934;2022-08-06T16:38:50;22.80;61.80
5176;DHT22;2607;50.934;6.934;2022-08-06T16:41:16;22.80;62.30
5176;DHT22;2607;50.934;6.934;2022-08-06T16:43:41;23.00;61.40
5176;DHT22;2607;50.934;6.934;2022-08-06T16:46:09;23.10;60.20
5176;DHT22;2607;50.934;6.934;2022-08-06T16:48:34;23.20;58.70
5176;DHT22;2607;50.934;6.934;2022-08-06T16:51:00;23.20;58.60
5176;DHT22;2607;50.934;6.934;2022-08-06T16:53:25;23.10;58.50
5176;DHT22;2607;50.934;6.934;2022-08-06T16:55:51;23.00;58.50
5176;DHT22;2607;50.934;6.934;2022-08-06T16:58:17;23.00;58.50
5176;DHT22;2607;50.934;6.934;2022-08-06T17:00:42;22.90;59.40
5176;DHT22;2607;50.934;6.934;2022-08-06T17:03:08;22.90;60.30
5176;DHT22;2607;50.934;6.934;2022-08-06T17:05:34;22.90;60.30
5176;DHT22;2607;50.934;6.934;2022-08-06T17:08:00;22.90;57.40
5176;DHT22;2607;50.934;6.934;2022-08-06T17:10:26;22.90;58.40
5176;DHT22;2607;50.934;6.934;2022-08-06T17:12:52;22.90;59.50
5176;DHT22;2607;50.934;6.934;2022-08-06T17:15:18;22.90;57.80
5176;DHT22;2607;50.934;6.934;2022-08-06T17:17:46;22.90;58.40
5176;DHT22;2607;50.934;6.934;2022-08-06T17:20:13;22.90;56.60